Kirksville Regional Airport
KIRK : now visible

Airfield :











YOU CAN JOIN US ON...

 
LOGIN :

Register | Disclaimer

   EN    FR    IT 

 









Legend :    VFR   Marginal VFR   IFR   Intensive IFR   Very Intensive IFR
Visi :
Ceiling :
>= 8 km
>= 3000ft
5 to 8 km
1000 to 3000 ft
1500m to 5 km
500 to 1000 ft
800 to 1500m
200 to 500 ft
< 800m
< 200 ft
Symbols :   Thunderstorms  Fog  Heavy snow  Heavy precipitations  Wind > 20 kt






- Airport Elevation : 966 ft
- IATA code : IRK


KIRK - Kirksville Regional

CURRENT METAR :
  • 181355Z AUTO 06006KT 4SM -TSRA BR SCT055 OVC075 11/09 A3007 RMK AO2 LTG DSNT SE-SW SLP185 P0024 T01060094

EXPIRED METARs :
  • 181347Z AUTO 07008G19KT 3SM TSRA BR SCT050 BKN065 OVC080 11/09 A3005 RMK AO2 LTG DSNT E-SW P0022 T01060094
  • 181337Z AUTO 05011KT 2 1/2SM -TSRA BR BKN055 BKN075 OVC085 11/09 A3005 RMK AO2 LTG DSNT ALQDS P0018 T01060094
  • 181310Z AUTO 02010KT 4SM -TSRA BR FEW044 BKN050 OVC085 11/09 A3004 RMK AO2 LTG DSNT ALQDS P0007 T01060094
  • 181255Z AUTO 05007G19KT 2 1/2SM +TSRA BR BKN046 OVC065 11/09 A3004 RMK AO2 PK WND 06026/1215 VIS 2V4 LTG DSNT SW-N RAB07E25B43 TSB42 PRESRR SLP174 P0014 T01110094
  • 181239Z AUTO 10010G22KT 10SM VCTS BKN046 BKN100 12/09 A2998 RMK AO2 PK WND 06026/1215 LTG DSNT ALQDS RAB07E25 PRESRR P0001 T01170089
  • 181141Z AUTO 08015G20KT 10SM SCT055 SCT090 BKN120 11/09 A2995 RMK AO2 LTG DSNT E RAE38 P0011 T01110094
  • 181155Z AUTO 09013G21KT 10SM FEW046 BKN110 11/09 A2996 RMK AO2 LTG DSNT SW RAE38 SLP148 P0011 60015 70015 T01110089 10128 20111 56010
  • 181055Z AUTO 05010KT 9SM VCTS -RA OVC090 11/09 A2997 RMK AO2 LTG DSNT N AND NE AND SW RAB03E18B28 TSB13E28 SLP147 P0003 T01110089
  • 181053Z AUTO 04012KT 10SM VCTS -RA OVC090 11/09 A2996 RMK AO2 LTG DSNT N AND NE AND SW RAB03E18B28 TSB13E28 P0003
  • 181034Z AUTO 07012KT 9SM VCTS -RA OVC090 12/09 A2996 RMK AO2 LTG DSNT ALQDS RAB03E18B28 TSB13E28 P0002 T01170089
  • 181019Z AUTO 09008KT 10SM TS FEW070 OVC095 12/09 A2998 RMK AO2 LTG DSNT SW-N RAB03E18 TSB13 P0001 T01170089
  • 180955Z AUTO 06005KT 10SM FEW070 OVC090 12/09 A3000 RMK AO2 LTG DSNT SW-NW RAB17E53 SLP158 P0001 T01170089

TAF N/A
KZKC FIR / North America



MET'MAP, your aeronautical weather chart ! - Copyright ORBIFLY December 2007 - Disclaimer

ORBIFLY MET'MAP TEAM :

Programming & Development : Alexandra Zaïnal
Original concept : Baudouin d'Aumeries
Technical & hardware support : Manuel Goepfert
Assistance : Marc-Olivier Méhu




SOURCES & CREDITS :

   NOAA       Earth
Advisory